Time;durP1;ratioP1;P1;durP2;ratioP2;P2;SDS_P1;SDS_P2;PMS_P1;PMS_P2;Temp;Humidity;BMP_temperature;BMP_pressure;BME280_temperature;BME280_humidity;BME280_pressure;Samples;Min_cycle;Max_cycle;Signal;HPM_P1;HPM_P2
2022/06/15 00:01:42;;;;;;;2.05;1.17;;;;;;;16.59;55.76;100359.75;4342217;33;33953;-87
2022/06/15 00:04:11;;;;;;;2.12;1.40;;;;;;;16.51;55.78;100364.69;4341970;33;33027;-87
2022/06/15 00:06:40;;;;;;;3.35;1.12;;;;;;;16.40;56.14;100369.81;4316849;33;34030;-88
2022/06/15 00:09:10;;;;;;;1.50;1.40;;;;;;;16.42;55.89;100377.69;4341459;33;35132;-87
2022/06/15 00:11:42;;;;;;;2.67;1.05;;;;;;;16.50;55.55;100370.97;4339569;33;34348;-87
2022/06/15 00:14:13;;;;;;;2.72;1.83;;;;;;;16.60;55.12;100364.12;4334296;33;34314;-87
2022/06/15 00:16:42;;;;;;;4.37;1.45;;;;;;;16.39;55.53;100366.28;4344362;33;33420;-87
2022/06/15 00:19:10;;;;;;;3.08;1.10;;;;;;;16.43;55.46;100368.78;4343365;33;33223;-86
2022/06/15 00:21:38;;;;;;;1.98;1.10;;;;;;;16.45;55.46;100369.53;4334230;33;33493;-86
2022/06/15 00:24:09;;;;;;;2.47;1.02;;;;;;;16.45;55.36;100372.19;4332577;33;33520;-86
2022/06/15 00:26:38;;;;;;;1.80;0.95;;;;;;;16.25;55.96;100370.69;4343721;33;33974;-87
2022/06/15 00:29:07;;;;;;;4.80;1.00;;;;;;;16.21;55.82;100366.50;4322531;33;33398;-87
2022/06/15 00:31:35;;;;;;;3.33;1.15;;;;;;;16.07;56.29;100362.81;4323517;33;33226;-86
2022/06/15 00:34:03;;;;;;;1.80;0.93;;;;;;;16.09;56.17;100368.03;4347311;33;33656;-86
2022/06/15 00:36:35;;;;;;;4.22;1.50;;;;;;;15.79;56.96;100368.00;4328490;33;33842;-87
2022/06/15 00:39:03;;;;;;;1.70;1.30;;;;;;;15.89;56.57;100369.19;4340761;33;34093;-86
2022/06/15 00:41:35;;;;;;;1.52;1.10;;;;;;;15.84;56.52;100372.09;4323246;33;32629;-87
2022/06/15 00:44:21;;;;;;;2.28;1.10;;;;;;;16.02;56.20;100362.22;4337382;33;33901;-87
2022/06/15 00:46:52;;;;;;;2.05;1.17;;;;;;;16.01;56.27;100357.84;4347868;33;34527;-86
2022/06/15 00:49:25;;;;;;;2.00;1.08;;;;;;;16.16;55.95;100357.91;4328426;33;34645;-86
2022/06/15 00:51:54;;;;;;;;;;;;;;;16.25;55.61;100360.03;4342851;33;32709;-85
2022/06/15 00:54:24;;;;;;;1.40;1.20;;;;;;;16.35;55.31;100361.22;4347336;33;34903;-85
2022/06/15 00:56:53;;;;;;;2.90;0.80;;;;;;;16.28;55.45;100354.50;4319114;33;32997;-85
2022/06/15 00:59:28;;;;;;;1.73;1.12;;;;;;;16.23;55.64;100356.59;4311621;33;33904;-85
2022/06/15 01:01:55;;;;;;;2.97;1.25;;;;;;;16.15;56.03;100370.38;4336386;33;32801;-85
2022/06/15 01:04:26;;;;;;;1.45;1.05;;;;;;;15.88;56.83;100372.81;4336368;33;33533;-85
2022/06/15 01:07:21;;;;;;;2.35;0.80;;;;;;;15.76;56.84;100370.81;4340843;33;33929;-85
2022/06/15 01:14:16;;;;;;;1.12;1.02;;;;;;;15.78;56.64;100374.28;4345753;33;33782;-87
2022/06/15 01:16:55;;;;;;;1.35;1.00;;;;;;;15.30;58.19;100374.19;4335022;33;32488;-87
2022/06/15 01:20:04;;;;;;;2.80;1.23;;;;;;;15.47;57.86;100375.91;4335025;33;34793;-87
2022/06/15 01:23:11;;;;;;;2.85;1.45;;;;;;;15.55;57.24;100380.84;4315197;33;33181;-87
2022/06/15 01:25:39;;;;;;;1.85;1.00;;;;;;;15.92;56.31;100382.34;4322856;33;32220;-87
2022/06/15 01:28:37;;;;;;;1.80;1.10;;;;;;;15.77;57.20;100384.06;4334525;33;32368;-87
2022/06/15 01:31:16;;;;;;;1.27;1.17;;;;;;;15.51;58.42;100385.47;4331804;33;32973;-86
2022/06/15 01:34:15;;;;;;;2.65;1.20;;;;;;;15.29;59.65;100379.59;4344208;33;33022;-86
2022/06/15 01:37:04;;;;;;;1.73;0.90;;;;;;;15.67;57.73;100384.66;4340511;33;34218;-87
2022/06/15 01:39:41;;;;;;;1.33;1.10;;;;;;;15.60;58.03;100387.62;4342107;33;33983;-86
2022/06/15 01:42:37;;;;;;;2.65;1.42;;;;;;;15.60;58.21;100384.94;4326626;33;34364;-85
2022/06/15 01:45:09;;;;;;;1.75;0.95;;;;;;;15.50;58.37;100383.75;4339958;33;34055;-85
2022/06/15 01:47:38;;;;;;;1.92;1.00;;;;;;;15.79;57.34;100389.28;4327191;33;33397;-85
2022/06/15 01:50:21;;;;;;;2.25;1.20;;;;;;;15.45;58.57;100396.44;4325046;33;33788;-85
2022/06/15 01:53:04;;;;;;;2.72;1.35;;;;;;;15.56;58.37;100399.37;4327573;33;33820;-86
2022/06/15 01:56:06;;;;;;;2.55;0.98;;;;;;;15.42;59.07;100391.28;4336702;33;32895;-86
2022/06/15 01:58:35;;;;;;;2.55;1.15;;;;;;;15.41;59.08;100386.06;4331923;33;33096;-87
2022/06/15 02:01:16;;;;;;;1.95;1.62;;;;;;;15.23;59.47;100390.56;4339777;33;33220;-86
2022/06/15 02:04:14;;;;;;;2.35;1.25;;;;;;;15.30;59.33;100399.94;4338173;33;33512;-85
2022/06/15 02:06:45;;;;;;;1.45;1.30;;;;;;;15.33;58.97;100389.13;4330589;33;34101;-86
2022/06/15 02:09:24;;;;;;;4.32;1.50;;;;;;;15.36;58.68;100391.62;4343977;33;33411;-86
2022/06/15 02:11:55;;;;;;;1.60;1.17;;;;;;;15.32;58.65;100390.06;4337289;33;33580;-86
2022/06/15 02:14:31;;;;;;;4.43;1.10;;;;;;;15.48;58.18;100384.78;4332106;33;34155;-86
2022/06/15 02:17:01;;;;;;;1.48;0.93;;;;;;;15.46;58.25;100391.97;4340797;33;35064;-86
2022/06/15 02:19:33;;;;;;;1.80;1.10;;;;;;;15.44;57.83;100388.56;4338648;33;33396;-85
2022/06/15 02:22:05;;;;;;;2.10;0.93;;;;;;;15.24;58.21;100393.16;4344314;33;34714;-86
2022/06/15 02:24:33;;;;;;;2.05;1.02;;;;;;;15.28;58.14;100386.69;4337456;33;33683;-85
2022/06/15 02:27:03;;;;;;;1.77;1.10;;;;;;;15.18;58.49;100392.59;4346525;33;34211;-86
2022/06/15 02:29:34;;;;;;;1.48;0.93;;;;;;;15.23;58.30;100395.88;4347126;33;34169;-85
2022/06/15 02:32:07;;;;;;;2.00;1.50;;;;;;;15.19;58.63;100396.97;4332066;33;32821;-86
2022/06/15 02:34:38;;;;;;;1.60;1.48;;;;;;;15.05;59.29;100395.94;4343050;33;33991;-85
2022/06/15 02:37:07;;;;;;;6.10;1.23;;;;;;;15.04;59.44;100396.00;4333770;33;34170;-86
2022/06/15 02:39:37;;;;;;;2.05;1.20;;;;;;;15.00;59.19;100390.00;4333000;33;33157;-86
2022/06/15 02:42:26;;;;;;;5.45;1.27;;;;;;;14.99;59.26;100388.25;4340318;33;34088;-87
2022/06/15 02:44:59;;;;;;;3.37;1.25;;;;;;;14.95;58.53;100389.34;4332042;33;33475;-88
2022/06/15 02:47:38;;;;;;;2.67;1.27;;;;;;;15.07;58.40;100385.19;4338555;33;32816;-86
2022/06/15 02:50:09;;;;;;;1.58;1.10;;;;;;;15.07;58.10;100391.38;4338387;33;33861;-86
2022/06/15 02:52:42;;;;;;;3.90;1.20;;;;;;;15.23;57.40;100391.41;4327004;33;33170;-86
2022/06/15 02:55:13;;;;;;;3.87;1.40;;;;;;;15.19;57.35;100389.87;4345478;33;33930;-86
2022/06/15 02:57:53;;;;;;;4.65;1.35;;;;;;;15.24;56.92;100389.59;4323727;33;32919;-86
2022/06/15 03:00:25;;;;;;;2.53;1.05;;;;;;;15.19;56.95;100400.53;4330684;33;33071;-86
2022/06/15 03:02:53;;;;;;;2.33;1.05;;;;;;;15.28;56.57;100397.34;4336438;33;33276;-86
2022/06/15 03:05:22;;;;;;;2.55;1.17;;;;;;;15.17;56.61;100394.41;4335144;33;34334;-87
2022/06/15 03:07:50;;;;;;;1.50;1.40;;;;;;;15.15;57.02;100403.44;4313649;33;33142;-85
2022/06/15 03:10:18;;;;;;;1.00;0.90;;;;;;;15.16;56.84;100402.47;4339123;33;34195;-85
2022/06/15 03:12:46;;;;;;;1.83;1.40;;;;;;;15.28;56.40;100407.13;4339979;33;33821;-85
2022/06/15 03:15:15;;;;;;;1.67;0.95;;;;;;;15.29;56.47;100412.38;4341364;33;33752;-85
2022/06/15 03:17:44;;;;;;;3.65;1.10;;;;;;;15.28;56.18;100404.47;4338962;33;34058;-85
2022/06/15 03:20:12;;;;;;;3.28;1.20;;;;;;;15.21;56.55;100403.94;4341687;33;33238;-84
2022/06/15 03:22:42;;;;;;;1.50;0.90;;;;;;;15.33;56.26;100405.06;4337338;33;33952;-85
2022/06/15 03:25:11;;;;;;;1.70;1.02;;;;;;;15.37;55.94;100412.81;4336306;33;33899;-84
2022/06/15 03:27:39;;;;;;;0.95;0.80;;;;;;;15.32;56.44;100408.69;4327459;33;33423;-84
2022/06/15 03:30:09;;;;;;;1.15;1.08;;;;;;;15.50;56.14;100410.37;4325517;33;33600;-84
2022/06/15 03:32:41;;;;;;;1.33;0.80;;;;;;;15.51;56.05;100409.41;4331142;33;33685;-84
2022/06/15 03:35:11;;;;;;;1.67;0.95;;;;;;;15.51;56.60;100409.41;4332272;33;34315;-85
2022/06/15 03:37:49;;;;;;;1.08;0.90;;;;;;;15.73;56.05;100410.94;4320570;33;33456;-86
2022/06/15 03:40:19;;;;;;;1.60;0.80;;;;;;;15.86;55.57;100407.53;4336455;33;32755;-85
2022/06/15 03:42:47;;;;;;;1.83;1.10;;;;;;;15.85;55.76;100402.25;4338613;33;33255;-86
2022/06/15 03:45:17;;;;;;;1.02;0.93;;;;;;;15.90;55.95;100402.00;4339124;33;33525;-85
2022/06/15 03:47:46;;;;;;;4.22;1.35;;;;;;;16.03;55.42;100409.22;4311387;33;34060;-85
2022/06/15 03:50:14;;;;;;;4.45;1.05;;;;;;;16.09;55.33;100403.56;4328316;33;33842;-85
2022/06/15 03:52:43;;;;;;;1.35;1.17;;;;;;;16.08;55.32;100401.81;4340973;33;33947;-88
2022/06/15 03:55:12;;;;;;;2.15;1.00;;;;;;;16.28;54.73;100402.47;4325853;33;32798;-88
2022/06/15 03:57:41;;;;;;;5.72;1.37;;;;;;;16.33;55.02;100400.41;4323248;33;32969;-88
2022/06/15 04:00:20;;;;;;;3.03;0.88;;;;;;;16.47;53.87;100402.28;4338379;33;33529;-88
2022/06/15 04:02:52;;;;;;;2.05;1.05;;;;;;;16.56;54.38;100407.91;4342183;33;32617;-88
2022/06/15 04:05:30;;;;;;;1.52;1.00;;;;;;;16.68;53.64;100400.16;4335589;33;32887;-88
2022/06/15 04:10:48;;;;;;;1.23;0.68;;;;;;;17.17;51.79;100407.91;4330502;33;32465;-86
2022/06/15 04:13:20;;;;;;;2.50;1.00;;;;;;;17.34;51.62;100405.06;4325016;33;33569;-86
2022/06/15 04:15:49;;;;;;;3.15;0.90;;;;;;;17.30;50.56;100403.53;4340906;33;32818;-86
2022/06/15 04:18:17;;;;;;;0.98;0.82;;;;;;;17.57;51.34;100400.94;4338482;33;33907;-86
2022/06/15 04:20:45;;;;;;;1.12;0.90;;;;;;;17.70;48.77;100403.69;4339027;33;33215;-87
2022/06/15 04:23:17;;;;;;;1.12;0.77;;;;;;;18.22;49.58;100408.34;4325358;33;33126;-86
2022/06/15 04:26:00;;;;;;;2.15;1.02;;;;;;;18.17;48.56;100401.50;4335694;33;36309;-87
2022/06/15 04:28:33;;;;;;;2.65;0.73;;;;;;;18.13;47.65;100408.00;4342895;33;34197;-87
2022/06/15 04:31:04;;;;;;;1.00;0.65;;;;;;;18.49;47.89;100411.88;4323478;33;33745;-84
2022/06/15 04:33:34;;;;;;;3.10;0.80;;;;;;;18.63;46.20;100402.94;4338058;33;34216;-87
2022/06/15 04:36:04;;;;;;;2.03;1.00;;;;;;;18.80;46.26;100401.81;4314068;33;33896;-86
2022/06/15 04:38:39;;;;;;;1.67;1.10;;;;;;;18.83;46.45;100406.97;4328295;33;33876;-87
2022/06/15 04:41:16;;;;;;;2.37;1.10;;;;;;;19.00;46.59;100400.47;4326087;33;32608;-87
2022/06/15 04:43:45;;;;;;;1.02;0.90;;;;;;;19.10;46.66;100402.38;4317472;33;33846;-87
2022/06/15 04:46:17;;;;;;;1.42;0.93;;;;;;;18.96;46.27;100397.13;4314230;33;33310;-87
2022/06/15 04:48:46;;;;;;;3.17;0.88;;;;;;;19.42;46.44;100393.94;4326929;33;34058;-87
2022/06/15 04:51:21;;;;;;;3.72;0.90;;;;;;;19.41;46.10;100402.91;4337481;33;33769;-87
2022/06/15 04:53:54;;;;;;;1.42;0.82;;;;;;;19.16;45.76;100401.94;4341367;33;33883;-86
2022/06/15 04:56:23;;;;;;;4.55;1.45;;;;;;;19.67;45.73;100401.09;4326312;33;33885;-86
2022/06/15 04:58:54;;;;;;;1.62;1.00;;;;;;;19.73;45.86;100410.50;4311211;33;34096;-88
2022/06/15 05:01:23;;;;;;;1.52;0.80;;;;;;;20.00;44.90;100400.47;4317580;33;33404;-86
2022/06/15 05:03:52;;;;;;;2.90;1.10;;;;;;;20.10;44.83;100398.81;4330891;33;33251;-85
2022/06/15 05:06:23;;;;;;;3.10;1.42;;;;;;;20.15;44.03;100399.31;4343669;33;33931;-85
2022/06/15 05:08:54;;;;;;;1.48;1.00;;;;;;;20.31;44.90;100401.72;4340351;33;33486;-85
2022/06/15 05:11:26;;;;;;;6.53;1.33;;;;;;;20.58;45.03;100404.19;4325487;33;33155;-85
2022/06/15 05:13:55;;;;;;;1.52;1.12;;;;;;;20.34;44.55;100401.50;4340602;33;34954;-85
2022/06/15 05:16:24;;;;;;;1.02;0.93;;;;;;;20.64;44.60;100402.84;4330273;33;33230;-85
2022/06/15 05:18:54;;;;;;;2.85;1.20;;;;;;;20.84;43.07;100404.88;4324852;33;34096;-85
2022/06/15 05:21:23;;;;;;;2.80;0.80;;;;;;;20.99;43.58;100410.06;4330177;33;33324;-85
2022/06/15 05:23:51;;;;;;;3.25;1.37;;;;;;;20.93;43.70;100400.63;4325375;33;34127;-85
2022/06/15 05:26:24;;;;;;;3.70;1.10;;;;;;;21.13;45.18;100405.31;4342864;33;34070;-85
2022/06/15 05:28:53;;;;;;;2.67;0.98;;;;;;;21.20;46.30;100403.84;4328224;33;32760;-85
2022/06/15 05:31:22;;;;;;;2.08;1.00;;;;;;;21.21;45.67;100402.87;4342870;33;32630;-85
2022/06/15 05:33:55;;;;;;;1.98;1.05;;;;;;;21.25;44.60;100402.63;4329115;33;32693;-85
2022/06/15 05:36:29;;;;;;;1.98;0.80;;;;;;;21.25;44.59;100403.47;4340455;33;33887;-85
2022/06/15 05:38:59;;;;;;;;;;;;;;;21.45;41.50;100396.56;4330759;33;34960;-85
2022/06/15 05:41:29;;;;;;;3.42;1.10;;;;;;;21.60;42.34;100403.44;4334011;33;32560;-85
2022/06/15 05:44:08;;;;;;;1.73;0.95;;;;;;;21.63;41.79;100402.31;4337072;33;33699;-85
2022/06/15 05:46:39;;;;;;;1.73;1.10;;;;;;;21.58;43.37;100399.97;4328863;33;33483;-85
2022/06/15 05:49:12;;;;;;;4.90;1.40;;;;;;;21.81;42.47;100405.34;4341016;33;32652;-85
2022/06/15 05:51:45;;;;;;;1.65;0.88;;;;;;;21.90;43.45;100409.97;4331895;33;32512;-85
2022/06/15 05:54:13;;;;;;;3.85;0.85;;;;;;;21.92;42.69;100405.31;4313588;33;32552;-86
2022/06/15 05:56:41;;;;;;;1.55;1.00;;;;;;;22.08;38.59;100410.31;4324259;33;33414;-85
2022/06/15 05:59:11;;;;;;;1.02;0.77;;;;;;;22.18;39.37;100414.00;4323908;33;33816;-86
2022/06/15 06:01:42;;;;;;;1.17;0.90;;;;;;;22.12;39.70;100418.00;4319508;33;32728;-86
2022/06/15 06:04:16;;;;;;;2.55;1.08;;;;;;;22.52;37.51;100406.66;4341146;33;33862;-86
2022/06/15 06:06:46;;;;;;;1.00;0.90;;;;;;;22.22;38.70;100410.91;4341597;33;33900;-86
2022/06/15 06:09:15;;;;;;;2.85;1.20;;;;;;;22.35;39.12;100417.97;4316813;33;33924;-86
2022/06/15 06:11:44;;;;;;;1.77;0.90;;;;;;;22.52;39.82;100416.56;4336594;33;32205;-86
2022/06/15 06:14:14;;;;;;;0.98;0.88;;;;;;;22.81;37.48;100417.66;4340349;33;33867;-87
2022/06/15 06:16:44;;;;;;;3.47;0.80;;;;;;;22.87;34.86;100417.13;4338866;33;33967;-86
2022/06/15 06:19:15;;;;;;;4.22;0.98;;;;;;;22.92;35.77;100414.06;4330483;33;33432;-87
2022/06/15 06:21:45;;;;;;;2.22;1.35;;;;;;;23.07;36.04;100418.12;4330914;33;34041;-87
2022/06/15 06:24:15;;;;;;;2.28;1.05;;;;;;;22.83;35.41;100426.44;4329360;33;32902;-86
2022/06/15 06:26:45;;;;;;;2.37;1.00;;;;;;;22.70;34.95;100421.25;4327561;33;32667;-86
2022/06/15 06:29:16;;;;;;;2.45;1.20;;;;;;;22.59;36.56;100423.13;4329225;33;33842;-85
2022/06/15 06:31:44;;;;;;;1.00;0.90;;;;;;;22.80;36.60;100418.62;4341819;33;33547;-85
2022/06/15 06:34:12;;;;;;;3.42;1.30;;;;;;;23.05;37.73;100420.09;4342004;33;33801;-85
2022/06/15 06:36:44;;;;;;;2.55;1.10;;;;;;;23.22;34.58;100411.44;4339789;33;34725;-84
2022/06/15 06:39:15;;;;;;;3.20;1.42;;;;;;;23.54;35.69;100414.97;4327100;33;34098;-85
2022/06/15 06:41:44;;;;;;;1.27;0.80;;;;;;;23.51;35.02;100416.13;4317257;33;33653;-85
2022/06/15 06:44:16;;;;;;;4.30;1.00;;;;;;;23.84;33.48;100416.84;4329924;33;32727;-85
2022/06/15 06:46:46;;;;;;;3.70;0.82;;;;;;;23.38;34.66;100426.25;4338350;33;34052;-85
2022/06/15 06:49:16;;;;;;;1.60;0.90;;;;;;;23.67;33.31;100416.50;4317395;33;33375;-85
2022/06/15 06:51:45;;;;;;;4.45;0.75;;;;;;;24.04;34.15;100425.84;4341075;33;33557;-85
2022/06/15 06:54:17;;;;;;;2.25;0.90;;;;;;;24.07;33.00;100417.44;4329084;33;32792;-85
2022/06/15 06:56:50;;;;;;;1.60;1.05;;;;;;;23.86;33.14;100415.69;4315305;33;33270;-84
2022/06/15 06:59:19;;;;;;;3.03;1.87;;;;;;;24.18;33.38;100420.03;4337514;33;33566;-86
2022/06/15 07:01:49;;;;;;;2.62;1.10;;;;;;;24.13;32.04;100420.47;4343249;33;33944;-85
2022/06/15 07:04:19;;;;;;;1.45;0.80;;;;;;;24.06;32.36;100416.59;4331790;33;33599;-86
2022/06/15 07:06:50;;;;;;;3.10;1.20;;;;;;;24.18;35.02;100422.75;4340161;33;33741;-85
2022/06/15 07:09:37;;;;;;;2.03;1.50;;;;;;;23.84;34.71;100424.94;4341091;33;34888;-85
2022/06/15 07:12:08;;;;;;;1.77;0.98;;;;;;;24.12;33.92;100416.06;4329919;33;32515;-84
2022/06/15 07:14:41;;;;;;;2.30;1.10;;;;;;;24.25;32.14;100418.47;4328973;33;32875;-85
2022/06/15 07:17:13;;;;;;;3.20;1.33;;;;;;;24.41;32.43;100421.53;4327236;33;32793;-85
2022/06/15 07:19:44;;;;;;;2.28;1.05;;;;;;;24.87;32.97;100425.34;4318291;33;33408;-85
2022/06/15 07:22:12;;;;;;;3.25;1.40;;;;;;;24.54;32.65;100415.81;4336232;33;32918;-84
2022/06/15 07:24:41;;;;;;;2.08;1.10;;;;;;;24.74;32.57;100428.34;4331318;33;33548;-84
2022/06/15 07:27:11;;;;;;;4.15;1.83;;;;;;;24.40;32.08;100429.75;4338673;33;33250;-85
2022/06/15 07:29:39;;;;;;;2.22;1.10;;;;;;;24.83;31.39;100414.97;4336546;33;33328;-84
2022/06/15 07:32:10;;;;;;;1.23;1.10;;;;;;;24.17;32.62;100419.19;4345844;33;34019;-86
2022/06/15 07:34:46;;;;;;;5.10;1.30;;;;;;;24.34;32.15;100420.34;4340470;33;32955;-85
2022/06/15 07:37:17;;;;;;;1.35;0.90;;;;;;;24.82;31.19;100424.06;4315022;33;32536;-84
2022/06/15 07:40:06;;;;;;;2.65;1.92;;;;;;;25.24;31.14;100409.22;4332522;33;33171;-85
2022/06/15 07:42:34;;;;;;;2.08;1.10;;;;;;;25.27;32.00;100413.50;4339823;33;33639;-85
2022/06/15 07:45:10;;;;;;;1.90;1.00;;;;;;;24.93;30.67;100413.13;4343938;33;34324;-85
2022/06/15 07:50:26;;;;;;;3.62;1.33;;;;;;;25.15;30.42;100415.50;4338086;33;32832;-85
2022/06/15 07:53:01;;;;;;;4.60;2.08;;;;;;;25.50;31.82;100409.44;4343530;33;32597;-85
2022/06/15 07:55:34;;;;;;;1.12;1.02;;;;;;;25.83;30.53;100409.91;4324359;33;33311;-84
2022/06/15 07:58:04;;;;;;;1.73;1.35;;;;;;;25.02;31.18;100417.66;4340580;33;34128;-85
2022/06/15 08:00:34;;;;;;;4.30;1.20;;;;;;;25.70;30.09;100410.22;4339689;33;33486;-85
2022/06/15 08:03:04;;;;;;;2.50;1.02;;;;;;;25.69;29.83;100404.97;4336698;33;32399;-84
2022/06/15 08:05:39;;;;;;;2.87;1.30;;;;;;;26.08;28.88;100408.31;4332848;33;33503;-85
2022/06/15 08:08:10;;;;;;;1.85;1.30;;;;;;;26.15;29.29;100404.00;4341564;33;33366;-84
2022/06/15 08:10:47;;;;;;;1.62;0.80;;;;;;;26.43;28.46;100404.81;4341863;33;33078;-85
2022/06/15 08:13:16;;;;;;;4.10;1.17;;;;;;;26.63;29.12;100400.09;4339819;33;33516;-84
2022/06/15 08:15:47;;;;;;;5.75;1.35;;;;;;;26.77;28.66;100402.22;4341507;33;34643;-85
2022/06/15 08:18:19;;;;;;;1.90;1.17;;;;;;;26.92;28.47;100398.97;4338803;33;33966;-85
2022/06/15 08:20:54;;;;;;;2.30;1.33;;;;;;;26.85;27.49;100396.03;4336144;33;34181;-84
2022/06/15 08:23:26;;;;;;;4.28;1.10;;;;;;;26.46;28.62;100406.37;4324066;33;31966;-85
2022/06/15 08:25:59;;;;;;;2.70;0.93;;;;;;;26.63;26.45;100407.38;4327163;33;34538;-84
2022/06/15 08:28:31;;;;;;;1.30;0.80;;;;;;;26.28;27.34;100409.87;4328165;33;34556;-85
2022/06/15 08:30:59;;;;;;;2.00;1.27;;;;;;;26.47;30.12;100402.66;4329992;33;34065;-84
2022/06/15 08:33:34;;;;;;;2.10;1.20;;;;;;;26.55;28.83;100400.88;4331026;33;33576;-85
2022/06/15 08:36:07;;;;;;;6.30;1.10;;;;;;;26.67;29.56;100406.91;4323049;33;32907;-85
2022/06/15 08:41:34;;;;;;;5.78;1.83;;;;;;;26.41;28.86;100401.41;4327728;33;33191;-83
2022/06/15 08:44:50;;;;;;;4.87;1.73;;;;;;;26.60;29.10;100402.28;4339676;33;33373;-82
2022/06/15 08:47:46;;;;;;;5.43;1.60;;;;;;;26.51;28.45;100398.62;4310106;33;32522;-85
2022/06/15 08:50:36;;;;;;;2.37;0.90;;;;;;;26.70;27.89;100398.47;4335408;33;33619;-83
2022/06/15 08:53:18;;;;;;;2.33;1.50;;;;;;;26.53;28.61;100396.63;4335867;32;34585;-84
2022/06/15 08:55:56;;;;;;;2.75;1.55;;;;;;;26.83;28.69;100402.66;4335090;33;33991;-84
2022/06/15 08:58:38;;;;;;;4.03;1.30;;;;;;;26.81;28.68;100397.34;4328393;33;33968;-86
2022/06/15 09:01:27;;;;;;;3.67;1.60;;;;;;;27.12;27.61;100392.38;4322800;33;33243;-86
2022/06/15 09:03:59;;;;;;;3.85;1.40;;;;;;;26.85;27.52;100392.50;4323737;33;33021;-86
2022/06/15 09:06:49;;;;;;;1.33;1.15;;;;;;;26.66;27.41;100402.50;4343380;33;32301;-85
2022/06/15 09:09:18;;;;;;;14.35;1.83;;;;;;;26.18;31.32;100392.87;4328544;33;34248;-86
2022/06/15 09:12:49;;;;;;;2.42;1.20;;;;;;;26.44;31.15;100397.53;4344653;33;33428;-85
2022/06/15 09:15:13;;;;;;;2.35;1.52;;;;;;;26.63;31.15;100393.81;4323201;33;33530;-85
2022/06/15 09:17:42;;;;;;;3.55;1.10;;;;;;;27.67;27.43;100386.56;4322505;33;33306;-86
2022/06/15 09:20:23;;;;;;;5.03;0.90;;;;;;;27.52;29.00;100382.75;4338085;33;33741;-85
2022/06/15 09:22:59;;;;;;;1.65;1.17;;;;;;;27.35;27.10;100380.97;4330728;33;33996;-86
2022/06/15 09:25:46;;;;;;;2.78;1.20;;;;;;;27.31;28.73;100375.03;4329306;33;34184;-85
2022/06/15 09:28:31;;;;;;;2.15;1.20;;;;;;;27.14;30.08;100374.09;4329582;33;33453;-87
2022/06/15 09:31:09;;;;;;;3.33;1.30;;;;;;;27.66;26.44;100378.59;4319178;33;32880;-86
2022/06/15 09:33:46;;;;;;;5.25;1.37;;;;;;;27.10;28.47;100374.56;4320194;33;32890;-86
2022/06/15 09:36:29;;;;;;;3.25;1.17;;;;;;;27.84;28.39;100368.53;4337982;33;33037;-86
2022/06/15 09:39:03;;;;;;;2.58;1.20;;;;;;;27.98;26.46;100376.03;4331643;33;33454;-86
2022/06/15 09:41:46;;;;;;;7.87;1.10;;;;;;;27.83;26.24;100374.12;4331977;33;34701;-87
2022/06/15 09:44:37;;;;;;;1.02;0.80;;;;;;;28.20;27.74;100368.25;4324034;33;33747;-87
2022/06/15 09:47:31;;;;;;;3.28;1.17;;;;;;;28.30;25.90;100375.25;4332011;33;33846;-86
2022/06/15 09:50:24;;;;;;;3.55;1.33;;;;;;;28.03;28.53;100370.09;4339191;33;32803;-87
2022/06/15 09:53:11;;;;;;;2.35;1.00;;;;;;;28.78;25.48;100365.44;4331366;33;33746;-86
2022/06/15 09:55:46;;;;;;;4.78;1.37;;;;;;;28.84;25.86;100364.75;4342211;33;33857;-86
2022/06/15 09:58:40;;;;;;;1.33;1.10;;;;;;;28.48;26.82;100357.97;4337708;33;34718;-86
2022/06/15 10:01:15;;;;;;;2.87;1.00;;;;;;;28.65;25.40;100364.25;4329818;33;33261;-86
2022/06/15 10:03:51;;;;;;;3.72;0.90;;;;;;;28.37;26.55;100358.31;4341253;33;33792;-86
2022/06/15 10:06:29;;;;;;;3.12;0.90;;;;;;;28.60;26.09;100355.78;4331072;33;33231;-86
2022/06/15 10:09:06;;;;;;;2.15;0.90;;;;;;;29.15;25.66;100349.59;4343689;33;33996;-86
2022/06/15 10:11:40;;;;;;;;;;;;;;;28.94;24.13;100341.97;4319650;33;33138;-86
2022/06/15 10:14:24;;;;;;;2.15;1.23;;;;;;;28.47;25.28;100334.53;4339969;33;34971;-86
2022/06/15 10:17:05;;;;;;;1.65;1.27;;;;;;;29.03;26.92;100340.97;4342913;33;33947;-86
2022/06/15 10:19:45;;;;;;;1.58;1.10;;;;;;;28.74;24.47;100331.47;4318766;33;34344;-86
2022/06/15 10:22:29;;;;;;;1.75;1.15;;;;;;;29.04;25.01;100338.06;4328178;33;33036;-86
2022/06/15 10:25:03;;;;;;;1.02;0.90;;;;;;;29.63;24.10;100332.28;4343480;33;33491;-86
2022/06/15 10:27:38;;;;;;;3.60;1.15;;;;;;;29.51;24.04;100333.66;4335438;33;33900;-86
2022/06/15 10:30:11;;;;;;;4.20;1.60;;;;;;;29.06;23.85;100329.75;4312306;33;33403;-85
2022/06/15 10:33:07;;;;;;;1.50;1.35;;;;;;;29.29;25.34;100338.87;4342639;33;34256;-86
2022/06/15 10:35:36;;;;;;;3.35;1.10;;;;;;;29.32;23.28;100335.78;4314655;33;32435;-86
2022/06/15 10:38:14;;;;;;;1.08;0.80;;;;;;;29.21;24.22;100330.72;4343151;33;33712;-86
2022/06/15 10:40:55;;;;;;;2.95;1.10;;;;;;;29.24;23.99;100327.63;4332697;33;33455;-86
2022/06/15 10:43:28;;;;;;;4.07;0.85;;;;;;;29.05;24.26;100328.03;4342381;32;33228;-87
2022/06/15 10:46:07;;;;;;;1.80;1.00;;;;;;;28.56;23.10;100326.22;4344068;33;33495;-87
2022/06/15 10:48:49;;;;;;;1.55;0.73;;;;;;;28.75;23.94;100321.44;4345633;33;32856;-86
2022/06/15 10:51:29;;;;;;;2.50;1.00;;;;;;;28.52;25.76;100315.84;4335919;32;33770;-86
2022/06/15 11:05:49;;;;;;;1.23;0.93;;;;;;;29.08;22.23;100303.22;4342804;33;33931;-85
2022/06/15 11:08:26;;;;;;;6.57;0.98;;;;;;;29.11;24.41;100300.16;4343137;33;34283;-86
2022/06/15 11:11:13;;;;;;;1.67;0.90;;;;;;;29.05;23.81;100303.56;4328992;33;34765;-86
2022/06/15 11:14:10;;;;;;;3.70;1.10;;;;;;;29.20;24.27;100303.69;4344605;32;35654;-86
2022/06/15 11:19:53;;;;;;;1.98;0.77;;;;;;;27.97;24.39;100302.91;4335638;33;35540;-86
2022/06/15 11:22:27;;;;;;;2.70;0.90;;;;;;;28.96;27.47;100301.87;4331248;33;33640;-86
2022/06/15 11:25:03;;;;;;;1.80;0.85;;;;;;;28.94;25.70;100293.88;4332672;33;33847;-86
2022/06/15 11:27:37;;;;;;;2.87;0.80;;;;;;;28.96;25.06;100286.44;4340354;33;32940;-86
2022/06/15 11:30:17;;;;;;;2.05;0.70;;;;;;;29.03;27.68;100281.16;4329963;33;34621;-85
2022/06/15 11:33:04;;;;;;;1.42;0.70;;;;;;;29.79;25.59;100283.19;4340311;33;33059;-85
2022/06/15 11:38:47;;;;;;;1.35;0.65;;;;;;;30.55;23.40;100278.72;4336434;33;34344;-85
2022/06/15 11:41:33;;;;;;;1.55;0.75;;;;;;;30.63;22.87;100272.34;4343925;33;34061;-85
2022/06/15 11:44:13;;;;;;;1.37;1.00;;;;;;;30.28;23.22;100274.69;4328980;33;32487;-85
2022/06/15 11:46:52;;;;;;;4.12;1.00;;;;;;;30.01;22.77;100276.09;4339087;33;35746;-85
2022/06/15 11:49:37;;;;;;;1.20;0.85;;;;;;;29.46;26.29;100276.22;4317509;33;33139;-85
2022/06/15 11:55:44;;;;;;;0.90;0.80;;;;;;;30.45;23.82;100266.38;4328532;33;34376;-85
2022/06/15 11:58:47;;;;;;;2.33;0.80;;;;;;;30.26;23.35;100270.47;4339511;33;33609;-85
2022/06/15 12:01:31;;;;;;;1.40;0.93;;;;;;;30.10;23.66;100263.25;4318164;33;33868;-85
2022/06/15 12:04:08;;;;;;;1.20;0.70;;;;;;;30.09;23.72;100269.72;4339264;33;32758;-87
2022/06/15 12:06:50;;;;;;;4.87;1.27;;;;;;;30.08;23.83;100260.69;4333063;33;33571;-87
2022/06/15 12:13:19;;;;;;;1.58;1.05;;;;;;;30.44;24.28;100259.25;4338618;33;34941;-88
2022/06/15 12:16:00;;;;;;;3.72;0.82;;;;;;;30.86;21.71;100255.94;4324723;33;33449;-87
2022/06/15 12:18:52;;;;;;;2.35;0.75;;;;;;;30.22;23.33;100258.25;4327100;33;33576;-87
2022/06/15 12:21:37;;;;;;;1.85;0.65;;;;;;;29.82;23.09;100261.06;4335562;33;33809;-87
2022/06/15 12:24:22;;;;;;;0.90;0.50;;;;;;;30.11;22.47;100251.34;4342079;32;32825;-87
2022/06/15 12:27:06;;;;;;;0.70;0.70;;;;;;;29.83;23.23;100256.47;4342348;33;33206;-87
2022/06/15 12:29:41;;;;;;;2.03;0.80;;;;;;;29.33;23.05;100250.41;4343398;33;34855;-87
2022/06/15 12:32:32;;;;;;;2.47;1.50;;;;;;;29.51;23.80;100252.03;4311807;33;34120;-88
2022/06/15 12:35:32;;;;;;;1.00;0.77;;;;;;;29.98;22.91;100248.38;4329348;33;33505;-87
2022/06/15 12:38:28;;;;;;;1.90;1.10;;;;;;;29.29;28.30;100256.41;4345520;32;33868;-87
2022/06/15 12:43:44;;;;;;;1.95;1.12;;;;;;;29.52;25.57;100251.00;4335723;33;33846;-86
2022/06/15 12:46:17;;;;;;;1.52;0.82;;;;;;;29.79;24.09;100244.25;4320425;33;32308;-87